sensor_id;sensor_type;location;lat;lon;timestamp;P1;durP1;ratioP1;P2;durP2;ratioP2
5630;SDS011;2837;50.990;7.124;2023-05-07T05:03:06;153.43;;;12.73;;
5630;SDS011;2837;50.990;7.124;2023-05-07T05:05:32;152.90;;;12.30;;
5630;SDS011;2837;50.990;7.124;2023-05-07T05:07:57;155.97;;;13.50;;
5630;SDS011;2837;50.990;7.124;2023-05-07T05:10:23;153.60;;;11.87;;
5630;SDS011;2837;50.990;7.124;2023-05-07T05:12:48;154.67;;;13.50;;
5630;SDS011;2837;50.990;7.124;2023-05-07T05:15:14;154.47;;;12.60;;
5630;SDS011;2837;50.990;7.124;2023-05-07T05:17:40;152.30;;;11.77;;
5630;SDS011;2837;50.990;7.124;2023-05-07T05:20:06;158.47;;;11.60;;
5630;SDS011;2837;50.990;7.124;2023-05-07T05:22:32;151.50;;;11.40;;
5630;SDS011;2837;50.990;7.124;2023-05-07T05:24:58;153.57;;;12.40;;
5630;SDS011;2837;50.990;7.124;2023-05-07T05:27:23;155.00;;;12.17;;
5630;SDS011;2837;50.990;7.124;2023-05-07T05:29:49;153.67;;;11.80;;
5630;SDS011;2837;50.990;7.124;2023-05-07T05:32:15;151.93;;;11.40;;
5630;SDS011;2837;50.990;7.124;2023-05-07T05:34:41;153.63;;;12.20;;
5630;SDS011;2837;50.990;7.124;2023-05-07T05:37:07;154.10;;;10.97;;
5630;SDS011;2837;50.990;7.124;2023-05-07T05:39:32;152.70;;;11.93;;
5630;SDS011;2837;50.990;7.124;2023-05-07T05:41:58;154.37;;;10.67;;
5630;SDS011;2837;50.990;7.124;2023-05-07T05:44:24;153.00;;;11.10;;
5630;SDS011;2837;50.990;7.124;2023-05-07T05:46:50;151.93;;;11.43;;
5630;SDS011;2837;50.990;7.124;2023-05-07T05:49:16;152.87;;;11.97;;
5630;SDS011;2837;50.990;7.124;2023-05-07T05:51:41;153.10;;;11.03;;
5630;SDS011;2837;50.990;7.124;2023-05-07T05:54:08;155.10;;;11.93;;
5630;SDS011;2837;50.990;7.124;2023-05-07T05:56:33;157.47;;;12.23;;
5630;SDS011;2837;50.990;7.124;2023-05-07T05:58:59;152.30;;;11.17;;
5630;SDS011;2837;50.990;7.124;2023-05-07T06:01:28;152.17;;;11.03;;
5630;SDS011;2837;50.990;7.124;2023-05-07T06:03:53;152.23;;;10.80;;
5630;SDS011;2837;50.990;7.124;2023-05-07T06:06:19;151.93;;;10.40;;
5630;SDS011;2837;50.990;7.124;2023-05-07T06:08:45;151.17;;;9.90;;
5630;SDS011;2837;50.990;7.124;2023-05-07T06:11:11;157.00;;;9.83;;
5630;SDS011;2837;50.990;7.124;2023-05-07T06:13:39;151.67;;;10.67;;
5630;SDS011;2837;50.990;7.124;2023-05-07T06:16:05;154.97;;;10.57;;
5630;SDS011;2837;50.990;7.124;2023-05-07T06:18:31;152.90;;;9.70;;
5630;SDS011;2837;50.990;7.124;2023-05-07T06:20:57;154.37;;;10.60;;
5630;SDS011;2837;50.990;7.124;2023-05-07T06:23:23;150.80;;;9.60;;
5630;SDS011;2837;50.990;7.124;2023-05-07T06:25:49;151.53;;;10.30;;
5630;SDS011;2837;50.990;7.124;2023-05-07T06:28:17;152.87;;;9.97;;
5630;SDS011;2837;50.990;7.124;2023-05-07T06:30:43;150.67;;;9.30;;
5630;SDS011;2837;50.990;7.124;2023-05-07T06:33:10;153.07;;;10.40;;
5630;SDS011;2837;50.990;7.124;2023-05-07T06:35:35;150.57;;;9.40;;
5630;SDS011;2837;50.990;7.124;2023-05-07T06:38:01;152.30;;;9.57;;
5630;SDS011;2837;50.990;7.124;2023-05-07T06:40:27;151.43;;;10.43;;
5630;SDS011;2837;50.990;7.124;2023-05-07T06:42:52;151.53;;;9.33;;
5630;SDS011;2837;50.990;7.124;2023-05-07T06:45:19;150.63;;;9.50;;
5630;SDS011;2837;50.990;7.124;2023-05-07T06:47:44;151.33;;;9.97;;
5630;SDS011;2837;50.990;7.124;2023-05-07T06:50:10;151.37;;;10.40;;
5630;SDS011;2837;50.990;7.124;2023-05-07T06:52:36;153.80;;;9.43;;
5630;SDS011;2837;50.990;7.124;2023-05-07T06:55:01;151.17;;;9.87;;
5630;SDS011;2837;50.990;7.124;2023-05-07T06:57:27;150.87;;;9.73;;
5630;SDS011;2837;50.990;7.124;2023-05-07T06:59:52;152.33;;;10.60;;
5630;SDS011;2837;50.990;7.124;2023-05-07T07:02:18;150.77;;;9.53;;
5630;SDS011;2837;50.990;7.124;2023-05-07T07:04:43;149.37;;;9.17;;
5630;SDS011;2837;50.990;7.124;2023-05-07T07:07:09;152.60;;;10.03;;
5630;SDS011;2837;50.990;7.124;2023-05-07T07:09:35;150.50;;;9.80;;
5630;SDS011;2837;50.990;7.124;2023-05-07T07:12:01;150.70;;;9.40;;
5630;SDS011;2837;50.990;7.124;2023-05-07T07:14:26;150.43;;;9.80;;
5630;SDS011;2837;50.990;7.124;2023-05-07T07:16:52;149.37;;;8.60;;
5630;SDS011;2837;50.990;7.124;2023-05-07T07:19:17;150.67;;;10.07;;
5630;SDS011;2837;50.990;7.124;2023-05-07T07:21:45;150.67;;;10.07;;
5630;SDS011;2837;50.990;7.124;2023-05-07T07:24:10;150.80;;;9.43;;
5630;SDS011;2837;50.990;7.124;2023-05-07T07:26:36;150.00;;;9.93;;
5630;SDS011;2837;50.990;7.124;2023-05-07T07:29:02;150.33;;;9.40;;
5630;SDS011;2837;50.990;7.124;2023-05-07T07:31:27;150.27;;;9.67;;
5630;SDS011;2837;50.990;7.124;2023-05-07T07:33:53;149.37;;;8.60;;
5630;SDS011;2837;50.990;7.124;2023-05-07T07:36:19;149.83;;;9.43;;
5630;SDS011;2837;50.990;7.124;2023-05-07T07:38:44;151.97;;;10.30;;
5630;SDS011;2837;50.990;7.124;2023-05-07T07:41:10;149.90;;;9.97;;
5630;SDS011;2837;50.990;7.124;2023-05-07T07:43:36;152.03;;;9.77;;
5630;SDS011;2837;50.990;7.124;2023-05-07T07:46:01;150.87;;;9.60;;
5630;SDS011;2837;50.990;7.124;2023-05-07T07:48:27;150.60;;;10.17;;
5630;SDS011;2837;50.990;7.124;2023-05-07T07:50:53;149.13;;;9.10;;
5630;SDS011;2837;50.990;7.124;2023-05-07T07:53:19;150.27;;;10.30;;
5630;SDS011;2837;50.990;7.124;2023-05-07T07:55:45;150.57;;;9.63;;
5630;SDS011;2837;50.990;7.124;2023-05-07T07:58:10;149.63;;;9.73;;
5630;SDS011;2837;50.990;7.124;2023-05-07T08:00:36;149.40;;;10.00;;
5630;SDS011;2837;50.990;7.124;2023-05-07T08:03:02;151.20;;;8.83;;
5630;SDS011;2837;50.990;7.124;2023-05-07T08:05:28;150.10;;;9.83;;
5630;SDS011;2837;50.990;7.124;2023-05-07T08:07:54;151.17;;;9.77;;
5630;SDS011;2837;50.990;7.124;2023-05-07T08:10:21;150.00;;;9.73;;
5630;SDS011;2837;50.990;7.124;2023-05-07T08:12:50;150.43;;;9.50;;
5630;SDS011;2837;50.990;7.124;2023-05-07T08:15:16;149.07;;;9.70;;
5630;SDS011;2837;50.990;7.124;2023-05-07T08:17:42;149.00;;;9.33;;
5630;SDS011;2837;50.990;7.124;2023-05-07T08:20:08;149.53;;;9.80;;
5630;SDS011;2837;50.990;7.124;2023-05-07T08:22:35;149.13;;;9.83;;
5630;SDS011;2837;50.990;7.124;2023-05-07T08:25:01;148.23;;;9.77;;
5630;SDS011;2837;50.990;7.124;2023-05-07T08:27:27;149.37;;;10.43;;
5630;SDS011;2837;50.990;7.124;2023-05-07T08:29:53;151.10;;;11.10;;
5630;SDS011;2837;50.990;7.124;2023-05-07T08:32:18;149.07;;;9.87;;
5630;SDS011;2837;50.990;7.124;2023-05-07T08:34:44;149.37;;;10.53;;
5630;SDS011;2837;50.990;7.124;2023-05-07T08:37:10;150.57;;;9.60;;
5630;SDS011;2837;50.990;7.124;2023-05-07T08:39:35;150.10;;;10.23;;
5630;SDS011;2837;50.990;7.124;2023-05-07T08:42:01;149.93;;;10.63;;
5630;SDS011;2837;50.990;7.124;2023-05-07T08:44:29;154.10;;;10.50;;
5630;SDS011;2837;50.990;7.124;2023-05-07T08:46:59;149.20;;;10.60;;
5630;SDS011;2837;50.990;7.124;2023-05-07T08:49:27;152.67;;;10.50;;
5630;SDS011;2837;50.990;7.124;2023-05-07T08:51:53;149.67;;;10.80;;
5630;SDS011;2837;50.990;7.124;2023-05-07T08:54:19;149.07;;;9.63;;
5630;SDS011;2837;50.990;7.124;2023-05-07T08:56:46;148.90;;;10.27;;
5630;SDS011;2837;50.990;7.124;2023-05-07T08:59:11;149.70;;;10.50;;
5630;SDS011;2837;50.990;7.124;2023-05-07T09:01:37;148.93;;;10.10;;
5630;SDS011;2837;50.990;7.124;2023-05-07T09:04:03;150.07;;;9.70;;
5630;SDS011;2837;50.990;7.124;2023-05-07T09:06:30;151.07;;;10.80;;
5630;SDS011;2837;50.990;7.124;2023-05-07T09:08:56;150.27;;;10.97;;
5630;SDS011;2837;50.990;7.124;2023-05-07T09:11:23;149.57;;;10.40;;
5630;SDS011;2837;50.990;7.124;2023-05-07T09:13:53;149.53;;;10.60;;
5630;SDS011;2837;50.990;7.124;2023-05-07T09:16:21;149.93;;;10.60;;
5630;SDS011;2837;50.990;7.124;2023-05-07T09:18:48;148.97;;;10.50;;
5630;SDS011;2837;50.990;7.124;2023-05-07T09:21:17;149.07;;;9.90;;
5630;SDS011;2837;50.990;7.124;2023-05-07T09:23:43;149.03;;;10.37;;
5630;SDS011;2837;50.990;7.124;2023-05-07T09:26:09;149.90;;;10.47;;
5630;SDS011;2837;50.990;7.124;2023-05-07T09:28:40;150.57;;;11.40;;
5630;SDS011;2837;50.990;7.124;2023-05-07T09:31:07;149.90;;;10.60;;
5630;SDS011;2837;50.990;7.124;2023-05-07T09:33:33;148.70;;;9.30;;
5630;SDS011;2837;50.990;7.124;2023-05-07T09:36:02;149.40;;;10.20;;
5630;SDS011;2837;50.990;7.124;2023-05-07T09:38:28;151.93;;;10.07;;
5630;SDS011;2837;50.990;7.124;2023-05-07T09:41:01;153.17;;;10.63;;
5630;SDS011;2837;50.990;7.124;2023-05-07T09:43:31;149.30;;;10.40;;
5630;SDS011;2837;50.990;7.124;2023-05-07T09:46:07;149.23;;;10.20;;
5630;SDS011;2837;50.990;7.124;2023-05-07T09:48:37;148.97;;;10.43;;
5630;SDS011;2837;50.990;7.124;2023-05-07T09:51:25;149.90;;;9.77;;
5630;SDS011;2837;50.990;7.124;2023-05-07T09:53:56;153.57;;;11.00;;
5630;SDS011;2837;50.990;7.124;2023-05-07T09:56:25;149.50;;;10.40;;
5630;SDS011;2837;50.990;7.124;2023-05-07T09:58:52;151.87;;;10.23;;
5630;SDS011;2837;50.990;7.124;2023-05-07T10:01:21;149.20;;;10.27;;
5630;SDS011;2837;50.990;7.124;2023-05-07T10:03:47;150.10;;;10.50;;
5630;SDS011;2837;50.990;7.124;2023-05-07T10:06:15;148.47;;;9.80;;
5630;SDS011;2837;50.990;7.124;2023-05-07T10:08:44;150.07;;;10.33;;
5630;SDS011;2837;50.990;7.124;2023-05-07T10:11:10;150.77;;;10.47;;
5630;SDS011;2837;50.990;7.124;2023-05-07T10:13:36;149.37;;;10.73;;
5630;SDS011;2837;50.990;7.124;2023-05-07T10:16:05;148.50;;;9.77;;
5630;SDS011;2837;50.990;7.124;2023-05-07T10:18:32;151.33;;;10.40;;
5630;SDS011;2837;50.990;7.124;2023-05-07T10:21:02;149.63;;;9.50;;
5630;SDS011;2837;50.990;7.124;2023-05-07T10:23:45;148.43;;;9.30;;
5630;SDS011;2837;50.990;7.124;2023-05-07T10:26:14;148.93;;;10.00;;
5630;SDS011;2837;50.990;7.124;2023-05-07T10:28:43;148.90;;;9.47;;
5630;SDS011;2837;50.990;7.124;2023-05-07T10:31:34;149.80;;;10.20;;
5630;SDS011;2837;50.990;7.124;2023-05-07T10:34:01;148.17;;;9.47;;
5630;SDS011;2837;50.990;7.124;2023-05-07T10:36:32;148.33;;;9.33;;
5630;SDS011;2837;50.990;7.124;2023-05-07T10:38:59;149.40;;;8.77;;
5630;SDS011;2837;50.990;7.124;2023-05-07T10:41:25;149.97;;;9.97;;
5630;SDS011;2837;50.990;7.124;2023-05-07T10:43:50;148.73;;;9.77;;
5630;SDS011;2837;50.990;7.124;2023-05-07T10:46:17;147.43;;;8.60;;
5630;SDS011;2837;50.990;7.124;2023-05-07T10:51:28;149.27;;;10.20;;
5630;SDS011;2837;50.990;7.124;2023-05-07T10:56:36;147.93;;;9.10;;
5630;SDS011;2837;50.990;7.124;2023-05-07T11:01:58;147.37;;;8.50;;
5630;SDS011;2837;50.990;7.124;2023-05-07T11:04:28;149.07;;;9.73;;
5630;SDS011;2837;50.990;7.124;2023-05-07T11:17:52;147.17;;;8.80;;
5630;SDS011;2837;50.990;7.124;2023-05-07T11:20:19;146.83;;;8.20;;
5630;SDS011;2837;50.990;7.124;2023-05-07T11:22:45;146.70;;;8.90;;
5630;SDS011;2837;50.990;7.124;2023-05-07T11:25:14;146.93;;;8.87;;
5630;SDS011;2837;50.990;7.124;2023-05-07T11:27:44;145.80;;;8.43;;
5630;SDS011;2837;50.990;7.124;2023-05-07T11:30:10;146.80;;;8.83;;
5630;SDS011;2837;50.990;7.124;2023-05-07T11:32:41;146.80;;;8.60;;
5630;SDS011;2837;50.990;7.124;2023-05-07T11:35:10;146.70;;;8.90;;
5630;SDS011;2837;50.990;7.124;2023-05-07T11:37:35;150.67;;;9.00;;
5630;SDS011;2837;50.990;7.124;2023-05-07T11:40:05;147.13;;;8.80;;
5630;SDS011;2837;50.990;7.124;2023-05-07T11:42:33;148.10;;;8.20;;
5630;SDS011;2837;50.990;7.124;2023-05-07T11:45:00;146.17;;;8.70;;
5630;SDS011;2837;50.990;7.124;2023-05-07T11:47:26;145.83;;;8.90;;
5630;SDS011;2837;50.990;7.124;2023-05-07T11:49:54;146.30;;;8.80;;
5630;SDS011;2837;50.990;7.124;2023-05-07T11:52:21;147.30;;;8.70;;
5630;SDS011;2837;50.990;7.124;2023-05-07T11:57:18;147.07;;;8.40;;
5630;SDS011;2837;50.990;7.124;2023-05-07T11:59:44;147.57;;;9.10;;
5630;SDS011;2837;50.990;7.124;2023-05-07T12:02:10;147.33;;;9.00;;
5630;SDS011;2837;50.990;7.124;2023-05-07T12:04:35;145.47;;;7.90;;
5630;SDS011;2837;50.990;7.124;2023-05-07T12:07:03;146.53;;;8.70;;
5630;SDS011;2837;50.990;7.124;2023-05-07T12:09:28;146.80;;;8.70;;
5630;SDS011;2837;50.990;7.124;2023-05-07T12:11:54;147.80;;;8.37;;
5630;SDS011;2837;50.990;7.124;2023-05-07T12:14:21;148.43;;;9.17;;
5630;SDS011;2837;50.990;7.124;2023-05-07T12:16:46;146.20;;;8.60;;
5630;SDS011;2837;50.990;7.124;2023-05-07T12:19:12;146.37;;;9.10;;
5630;SDS011;2837;50.990;7.124;2023-05-07T12:21:38;146.60;;;8.90;;
5630;SDS011;2837;50.990;7.124;2023-05-07T12:24:04;147.67;;;9.07;;
5630;SDS011;2837;50.990;7.124;2023-05-07T12:26:30;146.37;;;9.00;;
5630;SDS011;2837;50.990;7.124;2023-05-07T12:28:59;146.97;;;9.60;;
5630;SDS011;2837;50.990;7.124;2023-05-07T12:31:25;147.07;;;9.30;;
5630;SDS011;2837;50.990;7.124;2023-05-07T12:33:51;146.20;;;8.50;;
5630;SDS011;2837;50.990;7.124;2023-05-07T12:36:17;146.87;;;8.70;;
5630;SDS011;2837;50.990;7.124;2023-05-07T12:38:43;149.73;;;9.60;;
5630;SDS011;2837;50.990;7.124;2023-05-07T12:41:09;146.60;;;9.20;;
5630;SDS011;2837;50.990;7.124;2023-05-07T12:43:37;146.47;;;8.33;;
5630;SDS011;2837;50.990;7.124;2023-05-07T12:46:04;148.50;;;9.87;;
5630;SDS011;2837;50.990;7.124;2023-05-07T12:48:31;146.37;;;9.43;;
5630;SDS011;2837;50.990;7.124;2023-05-07T12:50:58;147.57;;;9.20;;
5630;SDS011;2837;50.990;7.124;2023-05-07T12:53:25;147.30;;;8.90;;
5630;SDS011;2837;50.990;7.124;2023-05-07T12:55:53;146.13;;;8.50;;
5630;SDS011;2837;50.990;7.124;2023-05-07T12:58:24;146.90;;;8.83;;
5630;SDS011;2837;50.990;7.124;2023-05-07T13:00:55;145.93;;;8.57;;
5630;SDS011;2837;50.990;7.124;2023-05-07T13:03:24;146.70;;;9.00;;
5630;SDS011;2837;50.990;7.124;2023-05-07T13:05:55;147.17;;;8.77;;
5630;SDS011;2837;50.990;7.124;2023-05-07T13:08:24;146.10;;;8.70;;
5630;SDS011;2837;50.990;7.124;2023-05-07T13:10:52;146.87;;;8.70;;
5630;SDS011;2837;50.990;7.124;2023-05-07T13:13:18;146.50;;;9.00;;
5630;SDS011;2837;50.990;7.124;2023-05-07T13:15:45;146.80;;;8.60;;
5630;SDS011;2837;50.990;7.124;2023-05-07T13:18:11;146.77;;;8.90;;
5630;SDS011;2837;50.990;7.124;2023-05-07T13:20:36;146.87;;;8.70;;
5630;SDS011;2837;50.990;7.124;2023-05-07T13:23:02;154.60;;;8.73;;
5630;SDS011;2837;50.990;7.124;2023-05-07T13:25:29;146.80;;;8.97;;
5630;SDS011;2837;50.990;7.124;2023-05-07T13:27:56;146.83;;;9.00;;
5630;SDS011;2837;50.990;7.124;2023-05-07T13:30:22;146.60;;;8.60;;
5630;SDS011;2837;50.990;7.124;2023-05-07T13:32:48;147.83;;;9.60;;
5630;SDS011;2837;50.990;7.124;2023-05-07T13:35:14;146.97;;;9.00;;
5630;SDS011;2837;50.990;7.124;2023-05-07T13:37:39;148.50;;;8.87;;
5630;SDS011;2837;50.990;7.124;2023-05-07T13:40:05;146.73;;;8.17;;
5630;SDS011;2837;50.990;7.124;2023-05-07T13:42:31;146.67;;;9.10;;
5630;SDS011;2837;50.990;7.124;2023-05-07T13:44:57;147.07;;;8.83;;
5630;SDS011;2837;50.990;7.124;2023-05-07T13:47:22;148.10;;;9.20;;
5630;SDS011;2837;50.990;7.124;2023-05-07T13:49:48;146.87;;;8.60;;
5630;SDS011;2837;50.990;7.124;2023-05-07T13:52:16;147.90;;;9.00;;
5630;SDS011;2837;50.990;7.124;2023-05-07T13:54:42;146.93;;;9.23;;
5630;SDS011;2837;50.990;7.124;2023-05-07T13:57:08;146.30;;;8.47;;
5630;SDS011;2837;50.990;7.124;2023-05-07T13:59:34;147.60;;;9.10;;
5630;SDS011;2837;50.990;7.124;2023-05-07T14:01:59;146.47;;;8.93;;
5630;SDS011;2837;50.990;7.124;2023-05-07T14:04:28;147.83;;;9.10;;
5630;SDS011;2837;50.990;7.124;2023-05-07T14:06:53;146.23;;;7.67;;
5630;SDS011;2837;50.990;7.124;2023-05-07T14:09:19;146.87;;;8.70;;
5630;SDS011;2837;50.990;7.124;2023-05-07T14:11:44;147.10;;;8.80;;
5630;SDS011;2837;50.990;7.124;2023-05-07T14:14:12;146.40;;;8.57;;
5630;SDS011;2837;50.990;7.124;2023-05-07T14:16:38;146.87;;;9.03;;
5630;SDS011;2837;50.990;7.124;2023-05-07T14:19:03;147.87;;;9.87;;
5630;SDS011;2837;50.990;7.124;2023-05-07T14:21:29;147.63;;;8.83;;
5630;SDS011;2837;50.990;7.124;2023-05-07T14:23:55;157.57;;;9.47;;
5630;SDS011;2837;50.990;7.124;2023-05-07T14:26:21;147.50;;;8.80;;
5630;SDS011;2837;50.990;7.124;2023-05-07T14:28:48;149.07;;;8.73;;
5630;SDS011;2837;50.990;7.124;2023-05-07T14:31:14;147.57;;;8.90;;
5630;SDS011;2837;50.990;7.124;2023-05-07T14:33:40;148.13;;;9.17;;
5630;SDS011;2837;50.990;7.124;2023-05-07T14:36:05;149.70;;;9.27;;
5630;SDS011;2837;50.990;7.124;2023-05-07T14:38:31;148.50;;;9.60;;
5630;SDS011;2837;50.990;7.124;2023-05-07T14:40:57;151.17;;;10.60;;
5630;SDS011;2837;50.990;7.124;2023-05-07T14:43:23;150.77;;;8.63;;
5630;SDS011;2837;50.990;7.124;2023-05-07T14:45:49;150.47;;;9.53;;
5630;SDS011;2837;50.990;7.124;2023-05-07T14:48:15;154.00;;;9.17;;
5630;SDS011;2837;50.990;7.124;2023-05-07T14:50:43;149.13;;;8.80;;
5630;SDS011;2837;50.990;7.124;2023-05-07T14:53:11;152.57;;;11.10;;
5630;SDS011;2837;50.990;7.124;2023-05-07T14:55:36;157.20;;;11.10;;
5630;SDS011;2837;50.990;7.124;2023-05-07T14:58:02;151.40;;;9.90;;
5630;SDS011;2837;50.990;7.124;2023-05-07T15:00:28;151.90;;;9.17;;
5630;SDS011;2837;50.990;7.124;2023-05-07T15:02:54;154.47;;;9.77;;
5630;SDS011;2837;50.990;7.124;2023-05-07T15:05:27;153.77;;;10.50;;
5630;SDS011;2837;50.990;7.124;2023-05-07T15:07:53;151.30;;;9.20;;
5630;SDS011;2837;50.990;7.124;2023-05-07T15:10:18;152.13;;;9.20;;
5630;SDS011;2837;50.990;7.124;2023-05-07T15:12:44;153.17;;;9.37;;
5630;SDS011;2837;50.990;7.124;2023-05-07T15:15:10;152.43;;;9.80;;
5630;SDS011;2837;50.990;7.124;2023-05-07T15:17:35;153.27;;;9.67;;
5630;SDS011;2837;50.990;7.124;2023-05-07T15:20:01;153.37;;;9.90;;
5630;SDS011;2837;50.990;7.124;2023-05-07T15:22:28;152.10;;;10.33;;
5630;SDS011;2837;50.990;7.124;2023-05-07T15:24:54;153.17;;;9.63;;
5630;SDS011;2837;50.990;7.124;2023-05-07T15:27:21;153.47;;;10.77;;
5630;SDS011;2837;50.990;7.124;2023-05-07T15:29:47;152.13;;;10.40;;
5630;SDS011;2837;50.990;7.124;2023-05-07T15:32:12;151.37;;;10.27;;
5630;SDS011;2837;50.990;7.124;2023-05-07T15:34:38;150.90;;;9.40;;
5630;SDS011;2837;50.990;7.124;2023-05-07T15:37:04;151.63;;;9.97;;
5630;SDS011;2837;50.990;7.124;2023-05-07T15:39:30;151.10;;;9.70;;
5630;SDS011;2837;50.990;7.124;2023-05-07T15:41:55;152.60;;;10.93;;
5630;SDS011;2837;50.990;7.124;2023-05-07T15:44:21;153.03;;;11.07;;
5630;SDS011;2837;50.990;7.124;2023-05-07T15:49:34;151.87;;;10.10;;
5630;SDS011;2837;50.990;7.124;2023-05-07T15:52:11;153.43;;;12.00;;
5630;SDS011;2837;50.990;7.124;2023-05-07T15:54:43;152.07;;;11.00;;
5630;SDS011;2837;50.990;7.124;2023-05-07T15:57:29;151.20;;;10.00;;
5630;SDS011;2837;50.990;7.124;2023-05-07T15:59:56;152.63;;;11.20;;
5630;SDS011;2837;50.990;7.124;2023-05-07T16:02:22;151.47;;;10.50;;
5630;SDS011;2837;50.990;7.124;2023-05-07T16:04:47;153.47;;;11.63;;
5630;SDS011;2837;50.990;7.124;2023-05-07T16:07:13;152.20;;;10.60;;
5630;SDS011;2837;50.990;7.124;2023-05-07T16:09:38;152.60;;;10.40;;
5630;SDS011;2837;50.990;7.124;2023-05-07T16:12:04;152.50;;;11.07;;
5630;SDS011;2837;50.990;7.124;2023-05-07T16:14:30;154.30;;;11.40;;
5630;SDS011;2837;50.990;7.124;2023-05-07T16:16:56;150.97;;;10.03;;
5630;SDS011;2837;50.990;7.124;2023-05-07T16:19:21;151.40;;;9.93;;
5630;SDS011;2837;50.990;7.124;2023-05-07T16:21:47;152.07;;;10.57;;
5630;SDS011;2837;50.990;7.124;2023-05-07T16:24:13;153.87;;;11.03;;
5630;SDS011;2837;50.990;7.124;2023-05-07T16:26:39;156.10;;;10.80;;
5630;SDS011;2837;50.990;7.124;2023-05-07T16:29:05;152.30;;;11.33;;
5630;SDS011;2837;50.990;7.124;2023-05-07T16:31:31;152.77;;;11.20;;
5630;SDS011;2837;50.990;7.124;2023-05-07T16:33:59;158.20;;;11.97;;
5630;SDS011;2837;50.990;7.124;2023-05-07T16:36:27;154.37;;;12.30;;
5630;SDS011;2837;50.990;7.124;2023-05-07T16:38:58;152.33;;;11.40;;
5630;SDS011;2837;50.990;7.124;2023-05-07T16:41:24;152.50;;;11.20;;
5630;SDS011;2837;50.990;7.124;2023-05-07T16:43:50;152.73;;;11.60;;
5630;SDS011;2837;50.990;7.124;2023-05-07T16:46:15;152.90;;;11.13;;
5630;SDS011;2837;50.990;7.124;2023-05-07T16:48:41;153.30;;;11.43;;
5630;SDS011;2837;50.990;7.124;2023-05-07T16:51:07;153.17;;;12.10;;
5630;SDS011;2837;50.990;7.124;2023-05-07T16:53:34;151.67;;;10.50;;
5630;SDS011;2837;50.990;7.124;2023-05-07T16:56:04;154.40;;;11.87;;
5630;SDS011;2837;50.990;7.124;2023-05-07T16:58:30;153.50;;;11.70;;
5630;SDS011;2837;50.990;7.124;2023-05-07T17:00:57;152.63;;;11.70;;
5630;SDS011;2837;50.990;7.124;2023-05-07T17:03:23;153.23;;;11.77;;
5630;SDS011;2837;50.990;7.124;2023-05-07T17:05:48;154.33;;;11.40;;
5630;SDS011;2837;50.990;7.124;2023-05-07T17:08:14;152.97;;;11.57;;
5630;SDS011;2837;50.990;7.124;2023-05-07T17:10:40;152.17;;;10.70;;
5630;SDS011;2837;50.990;7.124;2023-05-07T17:13:06;152.07;;;10.17;;
5630;SDS011;2837;50.990;7.124;2023-05-07T17:15:31;151.30;;;9.63;;
5630;SDS011;2837;50.990;7.124;2023-05-07T17:17:57;154.80;;;11.03;;
5630;SDS011;2837;50.990;7.124;2023-05-07T17:20:22;153.00;;;11.37;;
5630;SDS011;2837;50.990;7.124;2023-05-07T17:22:49;152.07;;;10.33;;
5630;SDS011;2837;50.990;7.124;2023-05-07T17:25:14;154.53;;;11.53;;
5630;SDS011;2837;50.990;7.124;2023-05-07T17:27:40;153.03;;;11.20;;
5630;SDS011;2837;50.990;7.124;2023-05-07T17:30:06;151.30;;;10.37;;
5630;SDS011;2837;50.990;7.124;2023-05-07T17:32:32;152.00;;;10.73;;
5630;SDS011;2837;50.990;7.124;2023-05-07T17:34:59;153.57;;;11.13;;
5630;SDS011;2837;50.990;7.124;2023-05-07T17:37:25;152.87;;;11.33;;
5630;SDS011;2837;50.990;7.124;2023-05-07T17:39:53;153.30;;;11.23;;
5630;SDS011;2837;50.990;7.124;2023-05-07T17:42:20;152.57;;;10.53;;
5630;SDS011;2837;50.990;7.124;2023-05-07T17:44:45;152.60;;;10.90;;
5630;SDS011;2837;50.990;7.124;2023-05-07T17:47:11;151.57;;;10.60;;
5630;SDS011;2837;50.990;7.124;2023-05-07T17:49:38;153.77;;;11.83;;
5630;SDS011;2837;50.990;7.124;2023-05-07T17:52:04;153.23;;;11.30;;
5630;SDS011;2837;50.990;7.124;2023-05-07T17:54:29;152.50;;;11.37;;
5630;SDS011;2837;50.990;7.124;2023-05-07T17:56:55;152.90;;;10.40;;
5630;SDS011;2837;50.990;7.124;2023-05-07T17:59:23;153.40;;;11.13;;
5630;SDS011;2837;50.990;7.124;2023-05-07T18:01:49;153.40;;;11.93;;
5630;SDS011;2837;50.990;7.124;2023-05-07T18:04:14;154.20;;;12.27;;
5630;SDS011;2837;50.990;7.124;2023-05-07T18:06:40;153.17;;;10.90;;
5630;SDS011;2837;50.990;7.124;2023-05-07T18:09:06;156.47;;;12.27;;
5630;SDS011;2837;50.990;7.124;2023-05-07T18:11:32;155.67;;;11.83;;
5630;SDS011;2837;50.990;7.124;2023-05-07T18:13:58;153.23;;;11.57;;
5630;SDS011;2837;50.990;7.124;2023-05-07T18:16:24;153.60;;;11.63;;
5630;SDS011;2837;50.990;7.124;2023-05-07T18:18:50;152.17;;;10.73;;
5630;SDS011;2837;50.990;7.124;2023-05-07T18:21:15;154.17;;;11.33;;
5630;SDS011;2837;50.990;7.124;2023-05-07T18:23:46;152.73;;;10.80;;
5630;SDS011;2837;50.990;7.124;2023-05-07T18:26:13;152.57;;;10.87;;
5630;SDS011;2837;50.990;7.124;2023-05-07T18:28:39;156.10;;;11.73;;
5630;SDS011;2837;50.990;7.124;2023-05-07T18:31:04;152.80;;;11.00;;
5630;SDS011;2837;50.990;7.124;2023-05-07T18:33:30;153.70;;;11.80;;
5630;SDS011;2837;50.990;7.124;2023-05-07T18:35:56;153.10;;;11.90;;
5630;SDS011;2837;50.990;7.124;2023-05-07T18:38:22;157.47;;;11.90;;
5630;SDS011;2837;50.990;7.124;2023-05-07T18:40:47;154.17;;;11.90;;
5630;SDS011;2837;50.990;7.124;2023-05-07T18:43:13;153.17;;;11.80;;
5630;SDS011;2837;50.990;7.124;2023-05-07T18:45:39;152.90;;;11.10;;
5630;SDS011;2837;50.990;7.124;2023-05-07T18:48:05;153.77;;;11.30;;
5630;SDS011;2837;50.990;7.124;2023-05-07T18:50:31;156.27;;;11.37;;
5630;SDS011;2837;50.990;7.124;2023-05-07T18:52:57;156.47;;;11.67;;
5630;SDS011;2837;50.990;7.124;2023-05-07T18:55:23;153.23;;;10.87;;
5630;SDS011;2837;50.990;7.124;2023-05-07T18:57:48;153.63;;;11.97;;
5630;SDS011;2837;50.990;7.124;2023-05-07T19:00:14;152.67;;;10.60;;
5630;SDS011;2837;50.990;7.124;2023-05-07T19:02:40;155.70;;;11.40;;
5630;SDS011;2837;50.990;7.124;2023-05-07T19:05:06;153.67;;;11.80;;
5630;SDS011;2837;50.990;7.124;2023-05-07T19:07:32;153.37;;;11.10;;
5630;SDS011;2837;50.990;7.124;2023-05-07T19:09:57;154.07;;;11.80;;
5630;SDS011;2837;50.990;7.124;2023-05-07T19:12:23;156.80;;;12.00;;
5630;SDS011;2837;50.990;7.124;2023-05-07T19:14:49;152.97;;;11.33;;
5630;SDS011;2837;50.990;7.124;2023-05-07T19:17:15;153.60;;;11.87;;
5630;SDS011;2837;50.990;7.124;2023-05-07T19:19:41;155.93;;;12.40;;
5630;SDS011;2837;50.990;7.124;2023-05-07T19:22:08;154.27;;;11.23;;
5630;SDS011;2837;50.990;7.124;2023-05-07T19:24:34;154.37;;;11.87;;
5630;SDS011;2837;50.990;7.124;2023-05-07T19:27:01;155.50;;;11.67;;
5630;SDS011;2837;50.990;7.124;2023-05-07T19:29:26;157.17;;;12.10;;
5630;SDS011;2837;50.990;7.124;2023-05-07T19:31:52;154.67;;;11.70;;
5630;SDS011;2837;50.990;7.124;2023-05-07T19:34:18;155.37;;;11.47;;
5630;SDS011;2837;50.990;7.124;2023-05-07T19:36:43;151.83;;;11.50;;
5630;SDS011;2837;50.990;7.124;2023-05-07T19:39:09;151.77;;;10.07;;
5630;SDS011;2837;50.990;7.124;2023-05-07T19:41:35;156.23;;;11.40;;
5630;SDS011;2837;50.990;7.124;2023-05-07T19:44:01;156.67;;;11.23;;
5630;SDS011;2837;50.990;7.124;2023-05-07T19:46:26;156.57;;;10.80;;
5630;SDS011;2837;50.990;7.124;2023-05-07T19:48:52;161.10;;;11.27;;
5630;SDS011;2837;50.990;7.124;2023-05-07T19:51:18;154.53;;;11.43;;
5630;SDS011;2837;50.990;7.124;2023-05-07T19:53:43;158.93;;;11.30;;
5630;SDS011;2837;50.990;7.124;2023-05-07T19:56:10;155.37;;;12.37;;
5630;SDS011;2837;50.990;7.124;2023-05-07T19:58:36;153.77;;;11.50;;
5630;SDS011;2837;50.990;7.124;2023-05-07T20:01:03;154.80;;;11.13;;
5630;SDS011;2837;50.990;7.124;2023-05-07T20:03:30;158.80;;;10.93;;